Adelaide, California
Current Conditions -  °F | °C
As of 11:53 AM on Wednesday 28 Jan 2015 (Local Time) from KPRB Reporting Station
Clear Clear  
Wind Chill: 53°   Ceiling: Unl
Heat Index: 53°   Visibility: 10mi
Dew Point: 48°   Wind: 6mph
Humidity: 83%   Direction: 320°NW
Pressure: 30.21"   Gusts: NA
Location:  35.6618°N, 120.707°W
Report Text: KPRB 281953Z AUTO 32005KT 10SM CLR 12/09 A3021 RMK AO2 SLP230 T01170089 TSNO
Loading
Personal Weather Stations






























Interactive Weather Map New forecast layout! Learn more

10-Day Weather Forecast

Advertisements
Track Severe Weather on mobile